createdAt,value
2019-02-11T00:01:46.662Z,34.77
2019-02-11T00:04:12.844Z,32.03
2019-02-11T00:06:39.173Z,26.97
2019-02-11T00:09:07.241Z,30.47
2019-02-11T00:11:33.430Z,34.43
2019-02-11T00:13:59.769Z,36.60
2019-02-11T00:16:25.937Z,36.17
2019-02-11T00:18:52.232Z,29.50
2019-02-11T00:21:18.586Z,31.60
2019-02-11T00:23:44.766Z,22.97
2019-02-11T00:26:11.431Z,23.37
2019-02-11T00:28:37.752Z,24.97
2019-02-11T00:31:03.938Z,24.00
2019-02-11T00:33:30.117Z,24.40
2019-02-11T00:35:56.465Z,22.97
2019-02-11T00:38:22.636Z,25.73
2019-02-11T00:40:48.910Z,23.37
2019-02-11T00:43:19.266Z,23.20
2019-02-11T00:45:43.309Z,25.83
2019-02-11T00:48:09.595Z,30.50
2019-02-11T00:50:35.942Z,27.97
2019-02-11T00:53:02.233Z,24.43
2019-02-11T00:55:28.422Z,25.87
2019-02-11T00:57:54.756Z,26.20
2019-02-11T01:00:20.938Z,25.77
2019-02-11T01:02:47.219Z,27.73
2019-02-11T01:05:13.451Z,26.83
2019-02-11T01:07:39.625Z,29.00
2019-02-11T01:10:08.317Z,26.87
2019-02-11T01:12:34.532Z,25.47
2019-02-11T01:15:00.807Z,25.70
2019-02-11T01:17:27.104Z,19.03
2019-02-11T01:19:53.331Z,20.20
2019-02-11T01:22:19.621Z,21.13
2019-02-11T01:24:45.892Z,20.60
2019-02-11T01:27:12.108Z,20.70
2019-02-11T01:29:38.286Z,20.63
2019-02-11T01:32:04.583Z,22.13
2019-02-11T01:34:30.801Z,22.17
2019-02-11T01:36:57.077Z,20.23
2019-02-11T01:39:23.365Z,21.90
2019-02-11T01:41:49.490Z,21.40
2019-02-11T01:44:15.685Z,22.50
2019-02-11T01:46:41.985Z,20.40
2019-02-11T01:49:08.199Z,18.03
2019-02-11T01:51:34.588Z,19.57
2019-02-11T01:54:00.879Z,19.40
2019-02-11T01:56:27.101Z,19.83
2019-02-11T01:58:53.367Z,18.30
2019-02-11T02:01:19.654Z,18.00
2019-02-11T02:03:45.973Z,15.63
2019-02-11T02:06:12.252Z,17.47
2019-02-11T02:08:38.545Z,17.50
2019-02-11T02:11:04.762Z,15.40
2019-02-11T02:13:30.937Z,16.33
2019-02-11T02:15:57.214Z,16.57
2019-02-11T02:18:23.435Z,16.50
2019-02-11T02:20:49.725Z,15.87
2019-02-11T02:23:15.911Z,17.57
2019-02-11T02:25:42.137Z,14.30
2019-02-11T02:28:08.358Z,14.87
2019-02-11T02:30:34.603Z,13.60
2019-02-11T02:33:00.814Z,15.23
2019-02-11T02:35:26.988Z,14.00
2019-02-11T02:37:53.290Z,14.93
2019-02-11T02:40:19.512Z,13.43
2019-02-11T02:42:45.680Z,14.63
2019-02-11T02:45:11.946Z,15.33
2019-02-11T02:47:38.158Z,13.97
2019-02-11T02:50:07.153Z,14.70
2019-02-11T02:52:33.424Z,14.97
2019-02-11T02:54:59.649Z,13.80
2019-02-11T02:57:25.842Z,14.73
2019-02-11T02:59:52.127Z,15.13
2019-02-11T03:02:18.434Z,14.77
2019-02-11T03:04:44.628Z,15.37
2019-02-11T03:07:10.911Z,15.47
2019-02-11T03:09:37.142Z,14.77
2019-02-11T03:12:03.434Z,10.00
2019-02-11T03:14:29.701Z,14.13
2019-02-11T03:16:55.923Z,14.00
2019-02-11T03:19:22.101Z,13.87
2019-02-11T03:21:48.281Z,13.47
2019-02-11T03:24:14.487Z,13.30
2019-02-11T03:26:40.771Z,13.73
2019-02-11T03:29:07.081Z,14.63
2019-02-11T03:31:33.299Z,14.17
2019-02-11T03:33:59.473Z,14.73
2019-02-11T03:36:25.757Z,16.00
2019-02-11T03:38:51.999Z,15.00
2019-02-11T03:41:18.184Z,15.63
2019-02-11T03:43:44.359Z,14.27
2019-02-11T03:46:10.575Z,14.67
2019-02-11T03:48:36.758Z,15.03
2019-02-11T03:51:02.917Z,15.83
2019-02-11T03:53:29.245Z,17.10
2019-02-11T03:55:55.425Z,16.60
2019-02-11T03:58:21.630Z,17.33
2019-02-11T04:00:47.958Z,16.00
2019-02-11T04:03:14.144Z,15.23
2019-02-11T04:05:40.417Z,17.30
2019-02-11T04:08:06.762Z,17.13
2019-02-11T04:10:33.002Z,14.07
2019-02-11T04:12:59.334Z,16.67
2019-02-11T04:15:25.567Z,16.80
2019-02-11T04:17:51.862Z,17.43
2019-02-11T04:20:18.156Z,14.10
2019-02-11T04:22:44.403Z,13.50
2019-02-11T04:25:10.585Z,13.97
2019-02-11T04:27:36.777Z,18.20
2019-02-11T04:30:05.024Z,16.50
2019-02-11T04:32:31.186Z,18.97
2019-02-11T04:34:57.462Z,19.17
2019-02-11T04:37:23.859Z,14.73
2019-02-11T04:39:50.080Z,12.10
2019-02-11T04:42:16.258Z,18.93
2019-02-11T04:44:42.496Z,10.57
2019-02-11T04:47:08.685Z,11.80
2019-02-11T04:49:34.965Z,11.07
2019-02-11T04:52:01.283Z,12.37
2019-02-11T04:54:27.566Z,15.23
2019-02-11T04:56:53.764Z,14.97
2019-02-11T04:59:20.245Z,14.87
2019-02-11T05:01:46.517Z,16.77
2019-02-11T05:04:12.798Z,15.60
2019-02-11T05:06:39.138Z,12.50
2019-02-11T05:09:05.629Z,13.00
2019-02-11T05:11:31.922Z,16.07
2019-02-11T05:13:58.192Z,16.30
2019-02-11T05:16:24.438Z,16.20
2019-02-11T05:18:50.741Z,14.93
2019-02-11T05:21:16.984Z,14.77
2019-02-11T05:23:43.258Z,14.23
2019-02-11T05:26:09.571Z,20.20
2019-02-11T05:28:35.802Z,18.87
2019-02-11T05:31:02.100Z,17.83
2019-02-11T05:33:28.404Z,19.10
2019-02-11T05:35:54.631Z,22.53
2019-02-11T05:38:20.920Z,26.30
2019-02-11T05:40:47.224Z,22.80
2019-02-11T05:43:13.445Z,21.10
2019-02-11T05:45:39.730Z,26.07
2019-02-11T05:48:06.074Z,31.30
2019-02-11T05:50:32.278Z,35.47
2019-02-11T05:52:58.564Z,35.00
2019-02-11T05:55:24.835Z,34.83
2019-02-11T05:57:51.071Z,41.00
2019-02-11T06:00:18.160Z,29.40
2019-02-11T06:02:44.450Z,30.27
2019-02-11T06:05:10.663Z,27.47
2019-02-11T06:07:36.854Z,27.43
2019-02-11T06:10:06.438Z,30.97
2019-02-11T06:12:32.687Z,31.67
2019-02-11T06:15:04.230Z,32.27
2019-02-11T06:17:27.070Z,30.60
2019-02-11T06:19:53.292Z,33.53
2019-02-11T06:22:19.584Z,32.40
2019-02-11T06:24:45.774Z,30.47
2019-02-11T06:27:12.364Z,25.87
2019-02-11T06:29:39.039Z,20.87
2019-02-11T06:32:05.241Z,32.93
2019-02-11T06:34:31.505Z,29.87
2019-02-11T06:36:57.809Z,20.47
2019-02-11T06:39:23.999Z,25.03
2019-02-11T06:41:50.339Z,28.77
2019-02-11T06:44:16.637Z,22.67
2019-02-11T06:46:42.934Z,20.57
2019-02-11T06:49:09.276Z,27.67
2019-02-11T06:51:35.564Z,35.33
2019-02-11T06:54:01.747Z,58.07
2019-02-11T06:56:28.100Z,51.10
2019-02-11T06:58:54.387Z,30.97
2019-02-11T07:01:20.590Z,21.00
2019-02-11T07:03:46.830Z,28.30
2019-02-11T07:06:13.122Z,26.20
2019-02-11T07:08:39.293Z,27.13
2019-02-11T07:11:05.630Z,21.03
2019-02-11T07:13:31.918Z,26.13
2019-02-11T07:15:58.108Z,25.53
2019-02-11T07:18:24.471Z,25.47
2019-02-11T07:20:50.758Z,25.17
2019-02-11T07:23:17.422Z,23.83
2019-02-11T07:25:43.774Z,26.23
2019-02-11T07:28:10.088Z,27.23
2019-02-11T07:30:36.277Z,28.23
2019-02-11T07:33:02.647Z,28.17
2019-02-11T07:35:28.976Z,29.87
2019-02-11T07:37:55.286Z,25.60
2019-02-11T07:40:21.514Z,26.20
2019-02-11T07:42:52.616Z,34.20
2019-02-11T07:45:29.911Z,29.13
2019-02-11T07:47:51.355Z,35.40
2019-02-11T07:50:17.560Z,49.77
2019-02-11T07:52:43.782Z,38.83
2019-02-11T07:55:09.975Z,37.30
2019-02-11T07:57:36.150Z,38.23
2019-02-11T08:00:03.316Z,35.07
2019-02-11T08:02:29.641Z,33.33
2019-02-11T08:04:55.843Z,29.70
2019-02-11T08:07:22.197Z,37.30
2019-02-11T08:09:48.383Z,27.33
2019-02-11T08:12:14.581Z,24.20
2019-02-11T08:14:41.355Z,30.67
2019-02-11T08:17:07.551Z,25.53
2019-02-11T08:19:33.724Z,21.97
2019-02-11T08:22:00.087Z,19.17
2019-02-11T08:24:26.265Z,18.33
2019-02-11T08:26:52.471Z,17.47
2019-02-11T08:29:18.790Z,15.30
2019-02-11T08:31:45.067Z,17.03
2019-02-11T08:34:11.342Z,15.07
2019-02-11T08:36:37.624Z,15.17
2019-02-11T08:39:04.498Z,14.80
2019-02-11T08:41:30.697Z,15.37
2019-02-11T08:43:58.282Z,19.77
2019-02-11T08:46:24.600Z,15.83
2019-02-11T08:48:50.890Z,19.67
2019-02-11T08:51:17.196Z,17.80
2019-02-11T08:53:43.386Z,17.83
2019-02-11T08:56:09.566Z,18.23
2019-02-11T08:58:35.782Z,18.13
2019-02-11T09:01:02.098Z,18.57
2019-02-11T09:03:28.408Z,17.10
2019-02-11T09:05:54.633Z,18.70
2019-02-11T09:08:20.928Z,15.10
2019-02-11T09:10:53.830Z,14.89
2019-02-11T09:13:20.157Z,16.10
2019-02-11T09:15:46.334Z,15.93
2019-02-11T09:18:12.526Z,14.70
2019-02-11T09:20:38.854Z,16.60
2019-02-11T09:23:05.043Z,15.47
2019-02-11T09:25:31.331Z,15.53
2019-02-11T09:27:57.577Z,16.47
2019-02-11T09:30:24.106Z,16.33
2019-02-11T09:32:50.399Z,14.97
2019-02-11T09:35:16.731Z,14.20
2019-02-11T09:37:42.920Z,13.77
2019-02-11T09:40:12.096Z,13.90
2019-02-11T09:42:38.301Z,14.40
2019-02-11T09:45:08.092Z,13.70
2019-02-11T09:47:34.368Z,14.30
2019-02-11T09:50:38.561Z,15.47
2019-02-11T09:53:05.171Z,15.50
2019-02-11T09:55:32.869Z,15.60
2019-02-11T09:57:59.103Z,14.50
2019-02-11T10:00:25.487Z,15.33
2019-02-11T10:02:51.670Z,16.03
2019-02-11T10:05:17.888Z,16.43
2019-02-11T10:07:44.200Z,17.80
2019-02-11T10:10:10.502Z,18.40
2019-02-11T10:12:36.859Z,17.93
2019-02-11T10:15:08.772Z,16.77
2019-02-11T10:17:34.965Z,16.97
2019-02-11T10:20:01.319Z,16.13
2019-02-11T10:22:27.590Z,14.93
2019-02-11T10:24:53.920Z,16.30
2019-02-11T10:27:20.250Z,14.67
2019-02-11T10:29:46.438Z,15.60
2019-02-11T10:32:12.752Z,13.97
2019-02-11T10:34:39.082Z,13.43
2019-02-11T10:37:05.379Z,12.90
2019-02-11T10:39:31.657Z,12.23
2019-02-11T10:41:58.035Z,12.60
2019-02-11T10:44:24.217Z,11.97
2019-02-11T10:46:50.430Z,10.53
2019-02-11T10:49:16.788Z,11.73
2019-02-11T10:51:43.104Z,9.47
2019-02-11T10:54:09.393Z,9.90
2019-02-11T10:56:35.714Z,8.50
2019-02-11T10:59:02.023Z,7.63
2019-02-11T11:01:28.203Z,7.60
2019-02-11T11:03:54.543Z,7.07
2019-02-11T11:06:20.854Z,6.73
2019-02-11T11:08:47.038Z,7.90
2019-02-11T11:11:13.367Z,7.80
2019-02-11T11:13:39.548Z,7.20
2019-02-11T11:16:05.864Z,7.37
2019-02-11T11:18:32.187Z,7.10
2019-02-11T11:20:58.479Z,8.37
2019-02-11T11:23:24.757Z,7.20
2019-02-11T11:25:51.113Z,7.43
2019-02-11T11:28:17.300Z,7.43
2019-02-11T11:30:43.585Z,6.67
2019-02-11T11:33:09.817Z,6.70
2019-02-11T11:35:35.996Z,6.00
2019-02-11T11:38:02.314Z,6.47
2019-02-11T11:40:28.658Z,6.73
2019-02-11T11:42:54.957Z,6.30
2019-02-11T11:45:21.257Z,9.53
2019-02-11T11:47:47.593Z,7.60
2019-02-11T11:50:15.262Z,6.97
2019-02-11T11:52:41.560Z,8.27
2019-02-11T11:55:10.406Z,7.67
2019-02-11T11:57:36.707Z,7.93
2019-02-11T12:00:06.637Z,7.40
2019-02-11T12:02:33.028Z,8.30
2019-02-11T12:04:59.333Z,8.50
2019-02-11T12:07:25.633Z,6.90
2019-02-11T12:09:51.967Z,5.73
2019-02-11T12:12:18.252Z,7.87
2019-02-11T12:14:44.525Z,6.87
2019-02-11T12:17:10.849Z,6.90
2019-02-11T12:19:37.039Z,7.67
2019-02-11T12:22:03.343Z,5.93
2019-02-11T12:24:29.640Z,7.50
2019-02-11T12:26:55.816Z,6.93
2019-02-11T12:29:22.061Z,6.50
2019-02-11T12:31:48.592Z,6.60
2019-02-11T12:34:14.848Z,7.17
2019-02-11T12:36:41.123Z,7.83
2019-02-11T12:39:07.408Z,7.20
2019-02-11T12:41:33.680Z,7.33
2019-02-11T12:43:59.941Z,7.33
2019-02-11T12:46:26.131Z,8.57
2019-02-11T12:48:52.384Z,8.47
2019-02-11T12:51:18.677Z,7.47
2019-02-11T12:53:44.885Z,7.17
2019-02-11T12:56:11.053Z,7.57
2019-02-11T12:58:37.223Z,6.93
2019-02-11T13:01:03.868Z,8.03
2019-02-11T13:03:30.082Z,8.17
2019-02-11T13:05:56.369Z,7.00
2019-02-11T13:08:23.674Z,8.13
2019-02-11T13:10:49.949Z,8.87
2019-02-11T13:13:16.149Z,10.57
2019-02-11T13:15:59.990Z,12.33
2019-02-11T13:18:10.447Z,10.13
2019-02-11T13:20:36.772Z,10.43
2019-02-11T13:23:03.175Z,9.93
2019-02-11T13:25:29.395Z,9.30
2019-02-11T13:27:55.571Z,8.63
2019-02-11T13:30:23.479Z,9.20
2019-02-11T13:32:49.742Z,7.73
2019-02-11T13:35:15.942Z,10.17
2019-02-11T13:37:42.330Z,10.30
2019-02-11T13:40:09.487Z,13.07
2019-02-11T13:42:35.645Z,11.60
2019-02-11T13:45:03.879Z,11.50
2019-02-11T13:47:30.018Z,15.30
2019-02-11T13:49:56.317Z,10.40
2019-02-11T13:52:22.613Z,11.37
2019-02-11T13:54:48.762Z,10.93
2019-02-11T13:57:15.014Z,13.23
2019-02-11T13:59:41.591Z,12.37
2019-02-11T14:02:07.799Z,13.73
2019-02-11T14:04:34.055Z,12.23
2019-02-11T14:07:00.319Z,11.63
2019-02-11T14:09:26.679Z,13.50
2019-02-11T14:11:52.855Z,14.40
2019-02-11T14:14:22.775Z,15.07
2019-02-11T14:16:49.049Z,14.70
2019-02-11T14:19:15.209Z,9.70
2019-02-11T14:21:41.540Z,11.17
2019-02-11T14:24:07.815Z,9.77
2019-02-11T14:26:34.001Z,11.77
2019-02-11T14:29:00.323Z,12.33
2019-02-11T14:31:30.492Z,12.77
2019-02-11T14:33:54.812Z,13.33
2019-02-11T14:36:21.041Z,13.93
2019-02-11T14:38:47.284Z,31.27
2019-02-11T14:41:13.440Z,14.60
2019-02-11T14:43:39.759Z,12.23
2019-02-11T14:46:06.022Z,14.53
2019-02-11T14:48:32.204Z,13.33
2019-02-11T14:50:58.489Z,13.40
2019-02-11T14:53:24.672Z,13.23
2019-02-11T14:55:50.829Z,14.43
2019-02-11T14:58:17.046Z,12.67
2019-02-11T15:00:43.316Z,16.00
2019-02-11T15:03:09.484Z,12.80
2019-02-11T15:05:35.777Z,14.93
2019-02-11T15:08:01.943Z,13.53
2019-02-11T15:10:28.143Z,15.50
2019-02-11T15:12:54.443Z,18.37
2019-02-11T15:15:20.727Z,13.17
2019-02-11T15:17:46.886Z,13.57
2019-02-11T15:20:14.805Z,14.83
2019-02-11T15:22:40.971Z,15.83
2019-02-11T15:25:11.817Z,14.67
2019-02-11T15:27:38.320Z,13.30
2019-02-11T15:30:07.509Z,12.70
2019-02-11T15:32:33.822Z,14.17
2019-02-11T15:35:00.322Z,13.73
2019-02-11T15:37:26.516Z,15.87
2019-02-11T15:39:52.798Z,14.13
2019-02-11T15:42:19.005Z,16.17
2019-02-11T15:44:45.165Z,18.53
2019-02-11T15:47:12.669Z,14.43
2019-02-11T15:49:38.982Z,15.43
2019-02-11T15:52:05.160Z,17.40
2019-02-11T15:54:31.335Z,16.67
2019-02-11T15:56:57.557Z,17.17
2019-02-11T15:59:23.706Z,18.07
2019-02-11T16:01:49.992Z,13.07
2019-02-11T16:04:16.381Z,17.17
2019-02-11T16:06:42.674Z,16.60
2019-02-11T16:09:08.951Z,15.40
2019-02-11T16:11:37.170Z,16.30
2019-02-11T16:14:03.350Z,14.10
2019-02-11T16:16:29.620Z,15.97
2019-02-11T16:18:55.938Z,15.67
2019-02-11T16:21:22.191Z,15.93
2019-02-11T16:23:48.352Z,10.30
2019-02-11T16:26:14.544Z,10.83
2019-02-11T16:28:40.709Z,9.83
2019-02-11T16:31:07.004Z,11.43
2019-02-11T16:33:33.296Z,9.20
2019-02-11T16:35:59.545Z,11.63
2019-02-11T16:38:25.823Z,14.00
2019-02-11T16:40:52.018Z,14.83
2019-02-11T16:43:18.295Z,17.77
2019-02-11T16:45:44.466Z,15.30
2019-02-11T16:48:10.782Z,12.73
2019-02-11T16:50:37.051Z,15.63
2019-02-11T16:53:03.339Z,11.10
2019-02-11T16:55:29.653Z,15.03
2019-02-11T16:57:55.922Z,15.47
2019-02-11T17:00:22.091Z,16.47
2019-02-11T17:02:48.371Z,12.83
2019-02-11T17:05:14.644Z,15.47
2019-02-11T17:07:42.183Z,15.40
2019-02-11T17:10:10.637Z,12.97
2019-02-11T17:12:36.998Z,14.00
2019-02-11T17:15:06.082Z,13.73
2019-02-11T17:17:32.273Z,13.03
2019-02-11T17:19:58.539Z,13.30
2019-02-11T17:22:24.814Z,13.43
2019-02-11T17:24:51.021Z,12.67
2019-02-11T17:27:17.309Z,13.33
2019-02-11T17:29:43.497Z,10.77
2019-02-11T17:32:09.841Z,14.43
2019-02-11T17:34:36.133Z,15.03
2019-02-11T17:37:02.401Z,18.20
2019-02-11T17:39:28.590Z,14.97
2019-02-11T17:41:54.850Z,16.63
2019-02-11T17:44:21.433Z,17.43
2019-02-11T17:46:47.637Z,11.70
2019-02-11T17:49:17.819Z,15.53
2019-02-11T17:51:42.112Z,13.90
2019-02-11T17:54:08.413Z,13.73
2019-02-11T17:56:34.594Z,13.93
2019-02-11T17:59:00.786Z,14.43
2019-02-11T18:01:27.086Z,12.77
2019-02-11T18:03:53.455Z,16.57
2019-02-11T18:06:20.496Z,16.13
2019-02-11T18:08:46.792Z,15.17
2019-02-11T18:11:13.072Z,16.13
2019-02-11T18:13:39.245Z,17.17
2019-02-11T18:16:05.503Z,16.20
2019-02-11T18:18:31.771Z,14.00
2019-02-11T18:20:57.944Z,13.17
2019-02-11T18:23:24.140Z,13.70
2019-02-11T18:25:50.413Z,12.50
2019-02-11T18:28:16.690Z,13.63
2019-02-11T18:30:43.020Z,12.87
2019-02-11T18:33:09.717Z,13.93
2019-02-11T18:35:35.893Z,16.03
2019-02-11T18:38:02.206Z,15.30
2019-02-11T18:40:28.387Z,12.70
2019-02-11T18:42:54.669Z,17.40
2019-02-11T18:45:20.975Z,17.87
2019-02-11T18:47:47.276Z,14.23
2019-02-11T18:50:14.341Z,10.83
2019-02-11T18:52:40.562Z,16.90
2019-02-11T18:55:12.673Z,13.30
2019-02-11T18:57:38.950Z,12.97
2019-02-11T19:00:08.288Z,13.63
2019-02-11T19:02:34.444Z,14.67
2019-02-11T19:05:00.609Z,16.93
2019-02-11T19:07:26.926Z,14.93
2019-02-11T19:09:53.104Z,13.63
2019-02-11T19:12:19.259Z,13.73
2019-02-11T19:14:46.627Z,16.40
2019-02-11T19:17:12.964Z,22.87
2019-02-11T19:19:43.100Z,15.23
2019-02-11T19:22:07.357Z,17.00
2019-02-11T19:24:33.641Z,17.67
2019-02-11T19:26:59.820Z,16.23
2019-02-11T19:29:26.096Z,15.00
2019-02-11T19:31:52.262Z,16.43
2019-02-11T19:34:18.427Z,15.03
2019-02-11T19:36:44.630Z,17.83
2019-02-11T19:39:10.916Z,13.93
2019-02-11T19:41:37.071Z,14.97
2019-02-11T19:44:03.281Z,11.80
2019-02-11T19:46:29.548Z,15.27
2019-02-11T19:48:55.713Z,14.47
2019-02-11T19:51:22.111Z,13.67
2019-02-11T19:53:48.386Z,17.40
2019-02-11T19:56:14.563Z,17.10
2019-02-11T19:58:40.760Z,16.50
2019-02-11T20:01:07.035Z,15.50
2019-02-11T20:03:33.207Z,13.23
2019-02-11T20:05:59.415Z,14.57
2019-02-11T20:08:25.586Z,17.60
2019-02-11T20:10:51.770Z,10.63
2019-02-11T20:13:18.079Z,17.57
2019-02-11T20:15:44.253Z,15.17
2019-02-11T20:18:10.424Z,16.23
2019-02-11T20:20:36.628Z,17.73
2019-02-11T20:23:02.890Z,14.53
2019-02-11T20:25:29.068Z,16.60
2019-02-11T20:27:55.263Z,15.73
2019-02-11T20:30:29.452Z,16.47
2019-02-11T20:32:55.639Z,15.43
2019-02-11T20:35:21.833Z,17.77
2019-02-11T20:37:48.001Z,15.63
2019-02-11T20:40:17.780Z,15.13
2019-02-11T20:42:44.067Z,16.03
2019-02-11T20:45:13.790Z,15.10
2019-02-11T20:47:40.014Z,25.63
2019-02-11T20:50:09.319Z,16.30
2019-02-11T20:52:35.097Z,17.13
2019-02-11T20:55:01.359Z,22.23
2019-02-11T20:57:27.667Z,21.10
2019-02-11T20:59:53.826Z,22.33
2019-02-11T21:02:20.008Z,19.47
2019-02-11T21:04:46.304Z,17.17
2019-02-11T21:07:12.579Z,16.07
2019-02-11T21:09:38.860Z,13.93
2019-02-11T21:12:05.196Z,16.77
2019-02-11T21:14:31.361Z,14.80
2019-02-11T21:16:57.665Z,12.97
2019-02-11T21:19:23.968Z,13.93
2019-02-11T21:21:50.247Z,13.80
2019-02-11T21:24:16.409Z,12.67
2019-02-11T21:26:42.614Z,13.07
2019-02-11T21:29:08.885Z,10.33
2019-02-11T21:31:36.925Z,12.50
2019-02-11T21:34:03.397Z,12.60
2019-02-11T21:36:29.569Z,11.87
2019-02-11T21:38:56.050Z,12.17
2019-02-11T21:41:22.384Z,12.20
2019-02-11T21:43:48.667Z,12.60
2019-02-11T21:46:14.953Z,11.27
2019-02-11T21:48:41.152Z,11.53
2019-02-11T21:51:07.338Z,11.87
2019-02-11T21:53:33.585Z,12.10
2019-02-11T21:55:59.791Z,11.70
2019-02-11T21:58:26.076Z,11.90
2019-02-11T22:00:52.335Z,12.53
2019-02-11T22:03:18.654Z,11.80
2019-02-11T22:05:44.939Z,14.00
2019-02-11T22:08:11.132Z,18.37
2019-02-11T22:10:37.346Z,14.57
2019-02-11T22:13:03.512Z,17.60
2019-02-11T22:15:30.692Z,14.43
2019-02-11T22:17:57.870Z,11.80
2019-02-11T22:20:24.135Z,10.63
2019-02-11T22:22:50.322Z,10.20
2019-02-11T22:25:16.632Z,10.23
2019-02-11T22:27:42.917Z,9.90
2019-02-11T22:30:14.898Z,9.47
2019-02-11T22:32:41.201Z,8.23
2019-02-11T22:35:10.087Z,8.47
2019-02-11T22:37:36.367Z,9.43
2019-02-11T22:40:03.791Z,9.83
2019-02-11T22:42:29.955Z,8.43
2019-02-11T22:44:56.132Z,8.63
2019-02-11T22:47:22.332Z,8.20
2019-02-11T22:49:48.604Z,9.10
2019-02-11T22:52:14.811Z,8.70
2019-02-11T22:54:41.026Z,8.20
2019-02-11T22:57:07.309Z,8.63
2019-02-11T22:59:33.583Z,8.20
2019-02-11T23:02:00.484Z,8.33
2019-02-11T23:04:26.652Z,8.43
2019-02-11T23:06:52.824Z,8.37
2019-02-11T23:09:19.153Z,7.40
2019-02-11T23:11:45.409Z,7.87
2019-02-11T23:14:11.680Z,7.97
2019-02-11T23:16:38.735Z,7.90
2019-02-11T23:19:05.727Z,7.97
2019-02-11T23:21:32.015Z,8.37
2019-02-11T23:23:58.194Z,7.17
2019-02-11T23:26:24.380Z,7.17
2019-02-11T23:28:50.660Z,7.13
2019-02-11T23:31:16.955Z,8.03
2019-02-11T23:33:43.133Z,7.60
2019-02-11T23:36:09.388Z,6.47
2019-02-11T23:38:35.691Z,7.43
2019-02-11T23:41:01.974Z,7.10
2019-02-11T23:43:28.271Z,7.43
2019-02-11T23:45:54.582Z,6.87
2019-02-11T23:48:20.729Z,7.57
2019-02-11T23:50:47.004Z,4.93
2019-02-11T23:53:13.297Z,6.83
2019-02-11T23:55:39.573Z,9.63
2019-02-11T23:58:05.741Z,13.43
